createdAt,value
2018-08-07T00:00:14.917Z,92.00
2018-08-07T00:02:42.433Z,92.60
2018-08-07T00:05:09.872Z,92.50
2018-08-07T00:07:37.432Z,92.50
2018-08-07T00:10:05.830Z,92.40
2018-08-07T00:12:33.270Z,93.00
2018-08-07T00:15:00.693Z,92.80
2018-08-07T00:17:28.141Z,92.90
2018-08-07T00:19:55.563Z,93.50
2018-08-07T00:22:23.002Z,93.40
2018-08-07T00:24:50.443Z,93.60
2018-08-07T00:27:17.892Z,93.60
2018-08-07T00:29:45.316Z,93.90
2018-08-07T00:34:40.078Z,94.60
2018-08-07T00:37:07.505Z,94.90
2018-08-07T00:39:34.944Z,94.90
2018-08-07T00:42:02.381Z,95.00
2018-08-07T00:44:29.807Z,95.10
2018-08-07T00:46:57.241Z,96.30
2018-08-07T00:49:24.732Z,95.80
2018-08-07T00:51:52.168Z,96.10
2018-08-07T00:54:19.633Z,96.10
2018-08-07T00:56:47.054Z,96.40
2018-08-07T00:59:14.502Z,96.70
2018-08-07T01:01:41.925Z,97.40
2018-08-07T01:04:09.402Z,97.60
2018-08-07T01:06:36.905Z,97.80
2018-08-07T01:09:06.029Z,97.90
2018-08-07T01:11:33.469Z,97.40
2018-08-07T01:14:00.891Z,97.60
2018-08-07T01:16:28.362Z,98.20
2018-08-07T01:18:55.804Z,98.30
2018-08-07T01:21:23.253Z,98.30
2018-08-07T01:23:50.936Z,98.70
2018-08-07T01:26:18.417Z,99.00
2018-08-07T01:28:45.828Z,99.00
2018-08-07T01:31:13.304Z,99.30
2018-08-07T01:33:40.728Z,99.40
2018-08-07T01:36:08.188Z,99.90
2018-08-07T01:38:35.604Z,99.90
2018-08-07T01:41:03.188Z,99.90
2018-08-07T01:43:30.612Z,99.90
2018-08-07T01:45:58.081Z,99.90
2018-08-07T01:48:25.497Z,99.90
2018-08-07T01:50:53.019Z,99.90
2018-08-07T01:53:20.513Z,99.90
2018-08-07T01:55:48.005Z,99.90
2018-08-07T01:58:15.457Z,99.90
2018-08-07T02:00:42.901Z,99.90
2018-08-07T02:03:10.337Z,99.90
2018-08-07T02:05:37.866Z,99.90
2018-08-07T02:08:05.306Z,99.90
2018-08-07T02:10:32.746Z,99.90
2018-08-07T02:13:00.169Z,99.90
2018-08-07T02:15:27.612Z,99.90
2018-08-07T02:17:55.049Z,99.90
2018-08-07T02:20:22.487Z,99.90
2018-08-07T02:22:50.036Z,99.90
2018-08-07T02:25:18.697Z,99.90
2018-08-07T02:27:46.552Z,99.90
2018-08-07T02:30:14.493Z,99.90
2018-08-07T02:32:41.993Z,99.90
2018-08-07T02:37:38.305Z,99.90
2018-08-07T02:40:06.050Z,99.90
2018-08-07T02:42:33.494Z,99.90
2018-08-07T02:45:00.921Z,99.90
2018-08-07T02:47:28.353Z,99.90
2018-08-07T02:49:55.776Z,99.90
2018-08-07T02:52:23.245Z,99.90
2018-08-07T02:54:50.673Z,99.90
2018-08-07T02:57:18.100Z,99.90
2018-08-07T02:59:45.545Z,99.90
2018-08-07T03:02:12.974Z,99.90
2018-08-07T03:04:40.765Z,99.90
2018-08-07T03:07:08.392Z,99.90
2018-08-07T03:09:35.879Z,99.90
2018-08-07T03:12:03.652Z,99.90
2018-08-07T03:14:31.252Z,99.90
2018-08-07T03:16:58.685Z,99.90
2018-08-07T03:19:26.120Z,99.90
2018-08-07T03:21:53.695Z,99.90
2018-08-07T03:24:21.282Z,99.90
2018-08-07T03:26:48.718Z,99.90
2018-08-07T03:29:16.143Z,99.90
2018-08-07T03:31:43.658Z,99.90
2018-08-07T03:34:11.204Z,99.90
2018-08-07T03:36:38.654Z,99.90
2018-08-07T03:39:07.480Z,99.90
2018-08-07T03:41:34.955Z,99.90
2018-08-07T03:44:02.345Z,99.90
2018-08-07T03:46:29.776Z,99.90
2018-08-07T03:48:57.209Z,99.90
2018-08-07T03:51:24.649Z,99.90
2018-08-07T03:53:52.089Z,99.90
2018-08-07T03:56:19.591Z,99.90
2018-08-07T03:58:47.061Z,99.90
2018-08-07T04:01:14.497Z,99.90
2018-08-07T04:03:41.962Z,99.90
2018-08-07T04:06:09.384Z,99.90
2018-08-07T04:08:36.832Z,99.90
2018-08-07T04:11:04.257Z,99.90
2018-08-07T04:15:59.223Z,99.90
2018-08-07T04:18:26.675Z,99.90
2018-08-07T04:20:54.237Z,99.90
2018-08-07T04:23:21.798Z,99.90
2018-08-07T04:25:49.221Z,99.90
2018-08-07T04:28:16.649Z,99.90
2018-08-07T04:33:11.317Z,99.90
2018-08-07T04:35:38.869Z,99.90
2018-08-07T04:38:06.458Z,99.90
2018-08-07T04:40:33.890Z,99.90
2018-08-07T04:43:01.508Z,99.90
2018-08-07T04:45:28.929Z,99.90
2018-08-07T04:47:56.385Z,99.90
2018-08-07T04:50:23.848Z,99.90
2018-08-07T04:52:51.401Z,99.90
2018-08-07T04:55:18.944Z,99.90
2018-08-07T04:57:46.508Z,99.90
2018-08-07T05:00:15.560Z,99.90
2018-08-07T05:02:43.840Z,99.90
2018-08-07T05:05:11.284Z,99.90
2018-08-07T05:07:38.904Z,99.90
2018-08-07T05:10:07.960Z,99.90
2018-08-07T05:12:35.404Z,99.90
2018-08-07T05:15:02.976Z,99.90
2018-08-07T05:17:30.449Z,99.90
2018-08-07T05:19:57.889Z,99.90
2018-08-07T05:22:25.767Z,99.90
2018-08-07T05:24:53.184Z,99.90
2018-08-07T05:27:20.716Z,99.90
2018-08-07T05:29:48.210Z,99.90
2018-08-07T05:32:15.641Z,99.90
2018-08-07T05:34:43.192Z,99.90
2018-08-07T05:37:10.468Z,99.90
2018-08-07T05:39:37.916Z,99.90
2018-08-07T05:42:05.377Z,99.90
2018-08-07T05:44:32.835Z,99.90
2018-08-07T05:47:00.288Z,99.90
2018-08-07T05:49:27.766Z,99.90
2018-08-07T05:51:55.363Z,99.90
2018-08-07T05:54:22.800Z,99.90
2018-08-07T05:56:50.260Z,99.90
2018-08-07T05:59:17.741Z,99.90
2018-08-07T06:01:45.192Z,99.90
2018-08-07T06:04:12.678Z,99.90
2018-08-07T06:06:40.309Z,99.90
2018-08-07T06:09:08.456Z,99.90
2018-08-07T06:11:35.900Z,99.90
2018-08-07T06:14:03.377Z,99.90
2018-08-07T06:16:31.332Z,99.90
2018-08-07T06:18:58.763Z,99.90
2018-08-07T06:21:26.225Z,99.90
2018-08-07T06:23:53.680Z,99.90
2018-08-07T06:26:21.157Z,99.90
2018-08-07T06:28:48.685Z,98.90
2018-08-07T06:31:16.212Z,96.60
2018-08-07T06:33:43.620Z,96.60
2018-08-07T06:36:11.061Z,96.30
2018-08-07T06:38:38.508Z,96.20
2018-08-07T06:41:06.117Z,95.30
2018-08-07T06:43:33.642Z,94.00
2018-08-07T06:46:01.072Z,94.30
2018-08-07T06:48:28.639Z,93.80
2018-08-07T06:50:56.092Z,92.90
2018-08-07T06:53:23.741Z,91.90
2018-08-07T06:55:51.229Z,92.40
2018-08-07T06:58:18.668Z,92.10
2018-08-07T07:00:46.109Z,91.70
2018-08-07T07:03:13.538Z,90.50
2018-08-07T07:05:40.984Z,90.30
2018-08-07T07:08:08.495Z,89.30
2018-08-07T07:10:35.936Z,89.70
2018-08-07T07:13:03.428Z,87.10
2018-08-07T07:15:30.880Z,90.30
2018-08-07T07:17:58.334Z,87.50
2018-08-07T07:20:25.780Z,88.40
2018-08-07T07:22:53.219Z,87.00
2018-08-07T07:25:20.653Z,85.80
2018-08-07T07:27:48.092Z,86.60
2018-08-07T07:30:16.892Z,84.10
2018-08-07T07:32:45.589Z,84.30
2018-08-07T07:35:13.344Z,82.50
2018-08-07T07:37:40.844Z,81.10
2018-08-07T07:40:08.408Z,79.70
2018-08-07T07:42:36.337Z,80.50
2018-08-07T07:45:04.408Z,79.20
2018-08-07T07:47:31.877Z,78.60
2018-08-07T07:49:59.309Z,78.60
2018-08-07T07:52:26.768Z,79.00
2018-08-07T07:54:54.208Z,78.40
2018-08-07T07:57:21.654Z,77.70
2018-08-07T07:59:49.084Z,77.30
2018-08-07T08:02:16.580Z,77.60
2018-08-07T08:04:44.037Z,76.50
2018-08-07T08:07:11.500Z,76.60
2018-08-07T08:09:38.948Z,75.90
2018-08-07T08:12:06.390Z,74.90
2018-08-07T08:14:33.852Z,73.00
2018-08-07T08:17:01.412Z,71.40
2018-08-07T08:19:28.857Z,69.60
2018-08-07T08:21:56.347Z,69.40
2018-08-07T08:24:23.973Z,68.10
2018-08-07T08:26:51.493Z,67.90
2018-08-07T08:29:19.048Z,65.00
2018-08-07T08:31:46.371Z,65.10
2018-08-07T08:34:13.821Z,65.60
2018-08-07T08:36:41.276Z,66.50
2018-08-07T08:39:09.797Z,64.90
2018-08-07T08:41:37.440Z,64.80
2018-08-07T08:44:04.876Z,66.50
2018-08-07T08:46:32.337Z,64.40
2018-08-07T08:48:59.801Z,62.40
2018-08-07T08:51:27.330Z,63.00
2018-08-07T08:53:54.810Z,63.30
2018-08-07T08:56:22.210Z,64.70
2018-08-07T08:58:49.692Z,61.10
2018-08-07T09:01:17.189Z,61.50
2018-08-07T09:03:44.661Z,59.90
2018-08-07T09:06:12.089Z,59.60
2018-08-07T09:08:39.540Z,59.40
2018-08-07T09:11:06.990Z,59.10
2018-08-07T09:13:34.564Z,58.30
2018-08-07T09:16:02.005Z,59.70
2018-08-07T09:18:29.473Z,58.90
2018-08-07T09:20:56.917Z,57.80
2018-08-07T09:23:24.363Z,57.70
2018-08-07T09:25:51.979Z,58.00
2018-08-07T09:28:19.363Z,57.60
2018-08-07T09:30:46.881Z,56.80
2018-08-07T09:33:14.363Z,56.30
2018-08-07T09:35:41.842Z,56.30
2018-08-07T09:38:09.308Z,56.70
2018-08-07T09:40:36.888Z,56.80
2018-08-07T09:43:04.602Z,55.60
2018-08-07T09:45:33.393Z,59.40
2018-08-07T09:50:28.292Z,54.80
2018-08-07T09:52:55.736Z,53.80
2018-08-07T09:55:23.161Z,55.40
2018-08-07T09:57:50.604Z,54.50
2018-08-07T10:00:24.037Z,56.30
2018-08-07T10:02:53.304Z,55.60
2018-08-07T10:05:22.701Z,55.00
2018-08-07T10:07:50.359Z,55.40
2018-08-07T10:10:18.101Z,53.90
2018-08-07T10:12:45.939Z,57.20
2018-08-07T10:15:13.564Z,54.80
2018-08-07T10:17:41.209Z,52.40
2018-08-07T10:20:09.776Z,53.10
2018-08-07T10:22:37.746Z,52.30
2018-08-07T10:25:06.132Z,52.50
2018-08-07T10:27:39.248Z,51.50
2018-08-07T10:30:08.204Z,52.90
2018-08-07T10:32:35.648Z,50.90
2018-08-07T10:35:03.141Z,51.70
2018-08-07T10:37:30.524Z,51.30
2018-08-07T10:39:57.959Z,50.50
2018-08-07T10:42:25.419Z,51.80
2018-08-07T10:44:52.860Z,51.10
2018-08-07T10:47:20.314Z,50.90
2018-08-07T10:49:47.782Z,53.40
2018-08-07T10:52:15.287Z,53.20
2018-08-07T10:54:42.681Z,50.10
2018-08-07T10:57:10.180Z,50.60
2018-08-07T10:59:37.624Z,50.80
2018-08-07T11:02:05.360Z,49.90
2018-08-07T11:04:32.888Z,50.30
2018-08-07T11:07:00.332Z,51.90
2018-08-07T11:09:27.788Z,49.80
2018-08-07T11:11:55.256Z,49.50
2018-08-07T11:14:22.697Z,48.50
2018-08-07T11:16:50.149Z,47.80
2018-08-07T11:19:17.605Z,48.00
2018-08-07T11:21:45.049Z,48.60
2018-08-07T11:24:12.497Z,49.10
2018-08-07T11:26:39.939Z,48.70
2018-08-07T11:29:07.432Z,48.90
2018-08-07T11:31:34.948Z,47.60
2018-08-07T11:34:02.399Z,48.50
2018-08-07T11:36:29.884Z,48.30
2018-08-07T11:38:57.365Z,48.50
2018-08-07T11:41:24.852Z,49.00
2018-08-07T11:43:52.385Z,49.00
2018-08-07T11:46:19.967Z,49.70
2018-08-07T11:48:47.406Z,48.50
2018-08-07T11:51:14.862Z,49.00
2018-08-07T11:53:42.542Z,49.70
2018-08-07T11:56:10.008Z,49.20
2018-08-07T11:58:37.456Z,48.80
2018-08-07T12:01:04.907Z,49.60
2018-08-07T12:03:32.441Z,49.50
2018-08-07T12:06:00.041Z,49.00
2018-08-07T12:08:27.486Z,49.50
2018-08-07T12:10:54.921Z,49.90
2018-08-07T12:13:22.384Z,49.70
2018-08-07T12:15:49.829Z,49.80
2018-08-07T12:18:17.276Z,50.50
2018-08-07T12:20:44.728Z,50.70
2018-08-07T12:23:12.212Z,50.00
2018-08-07T12:25:39.702Z,49.40
2018-08-07T12:28:07.239Z,50.70
2018-08-07T12:30:34.680Z,50.30
2018-08-07T12:33:02.134Z,50.20
2018-08-07T12:35:29.592Z,49.70
2018-08-07T12:37:57.057Z,50.40
2018-08-07T12:40:25.896Z,50.90
2018-08-07T12:42:57.109Z,49.70
2018-08-07T12:45:24.567Z,49.80
2018-08-07T12:47:52.013Z,49.90
2018-08-07T12:50:19.620Z,50.10
2018-08-07T12:52:47.629Z,50.20
2018-08-07T12:55:15.952Z,50.30
2018-08-07T12:57:43.520Z,49.20
2018-08-07T13:00:13.817Z,49.80
2018-08-07T13:02:41.268Z,50.00
2018-08-07T13:05:08.720Z,51.30
2018-08-07T13:07:36.288Z,51.50
2018-08-07T13:10:05.172Z,49.90
2018-08-07T13:12:32.606Z,51.70
2018-08-07T13:15:00.054Z,51.50
2018-08-07T13:17:27.589Z,51.60
2018-08-07T13:19:55.116Z,51.90
2018-08-07T13:22:22.557Z,51.30
2018-08-07T13:24:50.013Z,52.00
2018-08-07T13:27:17.452Z,52.10
2018-08-07T13:29:44.908Z,52.40
2018-08-07T13:32:12.381Z,52.40
2018-08-07T13:34:39.864Z,52.40
2018-08-07T13:37:07.417Z,51.90
2018-08-07T13:39:34.825Z,53.00
2018-08-07T13:42:02.316Z,53.80
2018-08-07T13:44:29.798Z,53.00
2018-08-07T13:46:57.448Z,53.40
2018-08-07T13:49:27.035Z,53.90
2018-08-07T13:51:54.753Z,54.00
2018-08-07T13:54:25.965Z,54.10
2018-08-07T13:56:53.397Z,54.40
2018-08-07T13:59:20.837Z,55.00
2018-08-07T14:01:48.445Z,55.40
2018-08-07T14:04:15.876Z,55.80
2018-08-07T14:06:43.316Z,56.60
2018-08-07T14:09:10.825Z,56.90
2018-08-07T14:11:39.368Z,57.20
2018-08-07T14:14:06.923Z,57.50
2018-08-07T14:16:34.486Z,57.20
2018-08-07T14:19:02.404Z,56.30
2018-08-07T14:21:29.920Z,55.50
2018-08-07T14:23:57.347Z,56.00
2018-08-07T14:26:24.791Z,56.20
2018-08-07T14:28:52.308Z,56.50
2018-08-07T14:31:19.664Z,57.30
2018-08-07T14:33:47.093Z,58.50
2018-08-07T14:36:14.526Z,58.80
2018-08-07T14:38:42.057Z,59.50
2018-08-07T14:41:09.485Z,60.30
2018-08-07T14:43:36.920Z,62.20
2018-08-07T14:46:04.372Z,61.40
2018-08-07T14:48:31.820Z,62.20
2018-08-07T14:50:59.305Z,62.20
2018-08-07T14:53:26.864Z,62.90
2018-08-07T14:55:54.440Z,63.00
2018-08-07T14:58:21.924Z,63.20
2018-08-07T15:00:49.632Z,64.00
2018-08-07T15:03:17.201Z,64.90
2018-08-07T15:05:44.858Z,65.20
2018-08-07T15:08:12.517Z,65.40
2018-08-07T15:10:40.089Z,65.20
2018-08-07T15:13:07.713Z,64.90
2018-08-07T15:15:35.145Z,64.20
2018-08-07T15:20:30.973Z,64.80
2018-08-07T15:22:58.639Z,64.60
2018-08-07T15:25:26.268Z,63.20
2018-08-07T15:27:53.737Z,63.30
2018-08-07T15:30:21.833Z,62.10
2018-08-07T15:32:50.013Z,61.30
2018-08-07T15:35:18.759Z,59.50
2018-08-07T15:37:46.376Z,58.70
2018-08-07T15:40:14.109Z,59.20
2018-08-07T15:42:42.707Z,59.70
2018-08-07T15:45:10.219Z,59.70
2018-08-07T15:47:37.668Z,59.90
2018-08-07T15:50:07.265Z,60.10
2018-08-07T15:52:34.839Z,59.60
2018-08-07T15:55:02.656Z,59.30
2018-08-07T15:57:30.100Z,59.80
2018-08-07T15:59:57.536Z,59.00
2018-08-07T16:02:25.097Z,60.00
2018-08-07T16:04:52.672Z,60.10
2018-08-07T16:07:20.368Z,59.70
2018-08-07T16:09:47.797Z,59.60
2018-08-07T16:14:42.565Z,59.60
2018-08-07T16:17:10.126Z,59.90
2018-08-07T16:19:37.677Z,60.00
2018-08-07T16:22:05.309Z,60.00
2018-08-07T16:24:33.844Z,60.10
2018-08-07T16:27:01.293Z,59.50
2018-08-07T16:29:28.752Z,59.80
2018-08-07T16:31:56.293Z,60.70
2018-08-07T16:34:23.863Z,60.50
2018-08-07T16:36:51.361Z,61.00
2018-08-07T16:39:18.864Z,60.30
2018-08-07T16:41:46.292Z,60.50
2018-08-07T16:44:13.729Z,59.70
2018-08-07T16:46:41.156Z,59.70
2018-08-07T16:49:08.586Z,60.40
2018-08-07T16:51:36.044Z,58.80
2018-08-07T16:54:03.788Z,58.50
2018-08-07T16:56:31.217Z,57.80
2018-08-07T16:58:58.674Z,57.60
2018-08-07T17:01:26.185Z,58.90
2018-08-07T17:03:53.680Z,58.10
2018-08-07T17:06:21.228Z,58.30
2018-08-07T17:08:48.652Z,57.50
2018-08-07T17:11:16.235Z,56.90
2018-08-07T17:13:43.697Z,56.20
2018-08-07T17:16:11.274Z,56.10
2018-08-07T17:18:38.861Z,55.30
2018-08-07T17:21:06.436Z,54.80
2018-08-07T17:23:33.920Z,54.80
2018-08-07T17:26:01.471Z,53.80
2018-08-07T17:28:29.198Z,53.50
2018-08-07T17:30:56.846Z,53.30
2018-08-07T17:33:24.393Z,53.90
2018-08-07T17:35:51.820Z,53.70
2018-08-07T17:38:19.308Z,54.30
2018-08-07T17:40:46.875Z,54.10
2018-08-07T17:43:15.100Z,53.80
2018-08-07T17:45:42.598Z,54.30
2018-08-07T17:48:10.062Z,54.40
2018-08-07T17:50:37.508Z,54.50
2018-08-07T17:53:04.981Z,55.20
2018-08-07T17:55:32.416Z,55.30
2018-08-07T17:58:00.108Z,55.30
2018-08-07T18:00:27.755Z,55.00
2018-08-07T18:02:55.228Z,55.50
2018-08-07T18:07:50.992Z,55.00
2018-08-07T18:10:19.120Z,55.10
2018-08-07T18:12:46.702Z,54.80
2018-08-07T18:15:15.389Z,54.90
2018-08-07T18:20:12.692Z,55.50
2018-08-07T18:22:40.305Z,55.30
2018-08-07T18:25:08.394Z,55.60
2018-08-07T18:27:35.964Z,56.10
2018-08-07T18:30:05.016Z,56.10
2018-08-07T18:32:32.724Z,56.20
2018-08-07T18:35:00.217Z,56.20
2018-08-07T18:37:27.681Z,56.80
2018-08-07T18:39:55.371Z,56.30
2018-08-07T18:42:22.797Z,56.50
2018-08-07T18:44:50.236Z,56.80
2018-08-07T18:47:17.705Z,57.50
2018-08-07T18:49:45.274Z,57.90
2018-08-07T18:52:12.732Z,57.90
2018-08-07T18:54:40.348Z,57.90
2018-08-07T18:57:07.849Z,57.50
2018-08-07T18:59:35.420Z,57.40
2018-08-07T19:02:02.876Z,57.90
2018-08-07T19:04:30.567Z,58.00
2018-08-07T19:06:58.003Z,58.20
2018-08-07T19:09:25.491Z,58.20
2018-08-07T19:12:30.509Z,59.50
2018-08-07T19:14:58.140Z,58.80
2018-08-07T19:17:25.700Z,58.40
2018-08-07T19:19:53.365Z,58.60
2018-08-07T19:22:20.821Z,58.90
2018-08-07T19:24:48.755Z,60.00
2018-08-07T19:27:16.340Z,61.40
2018-08-07T19:29:44.109Z,61.40
2018-08-07T19:32:11.747Z,61.10
2018-08-07T19:34:39.328Z,61.30
2018-08-07T19:37:06.905Z,61.90
2018-08-07T19:39:34.582Z,61.90
2018-08-07T19:42:02.356Z,62.50
2018-08-07T19:44:29.994Z,62.70
2018-08-07T19:46:57.436Z,63.30
2018-08-07T19:49:24.929Z,64.40
2018-08-07T19:51:52.465Z,65.20
2018-08-07T19:54:20.140Z,64.10
2018-08-07T19:56:47.576Z,65.00
2018-08-07T19:59:15.253Z,64.30
2018-08-07T20:01:42.900Z,63.00
2018-08-07T20:04:10.474Z,62.20
2018-08-07T20:06:38.261Z,62.20
2018-08-07T20:09:07.083Z,63.10
2018-08-07T20:11:34.707Z,62.40
2018-08-07T20:14:02.381Z,62.80
2018-08-07T20:16:30.001Z,62.90
2018-08-07T20:18:57.480Z,63.30
2018-08-07T20:21:24.941Z,63.60
2018-08-07T20:23:53.578Z,64.90
2018-08-07T20:26:21.089Z,64.10
2018-08-07T20:28:48.540Z,66.30
2018-08-07T20:31:16.161Z,66.10
2018-08-07T20:33:43.732Z,66.50
2018-08-07T20:36:11.559Z,65.10
2018-08-07T20:38:39.160Z,65.40
2018-08-07T20:41:06.654Z,66.00
2018-08-07T20:43:34.309Z,67.30
2018-08-07T20:46:01.773Z,67.60
2018-08-07T20:48:29.209Z,69.30
2018-08-07T20:50:56.710Z,68.60
2018-08-07T20:53:24.309Z,68.30
2018-08-07T20:55:51.765Z,69.00
2018-08-07T20:58:19.356Z,69.80
2018-08-07T21:00:46.790Z,69.20
2018-08-07T21:03:14.242Z,69.60
2018-08-07T21:05:41.697Z,68.50
2018-08-07T21:08:09.198Z,68.20
2018-08-07T21:10:36.601Z,67.30
2018-08-07T21:13:04.059Z,67.50
2018-08-07T21:15:31.569Z,67.80
2018-08-07T21:17:58.967Z,68.00
2018-08-07T21:20:26.454Z,68.00
2018-08-07T21:22:53.996Z,68.20
2018-08-07T21:25:22.257Z,68.80
2018-08-07T21:27:51.646Z,70.00
2018-08-07T21:30:21.448Z,70.10
2018-08-07T21:32:48.919Z,70.70
2018-08-07T21:35:16.360Z,70.90
2018-08-07T21:37:43.821Z,72.20
2018-08-07T21:40:12.613Z,73.30
2018-08-07T21:42:40.584Z,72.80
2018-08-07T21:45:08.241Z,71.60
2018-08-07T21:47:36.196Z,71.40
2018-08-07T21:50:04.257Z,71.20
2018-08-07T21:52:31.914Z,72.80
2018-08-07T21:54:59.408Z,76.50
2018-08-07T21:57:26.848Z,75.10
2018-08-07T21:59:54.292Z,72.60
2018-08-07T22:02:22.854Z,72.20
2018-08-07T22:04:50.379Z,72.00
2018-08-07T22:07:17.873Z,73.40
2018-08-07T22:09:45.317Z,72.70
2018-08-07T22:12:12.782Z,71.80
2018-08-07T22:14:40.325Z,71.80
2018-08-07T22:17:07.781Z,71.30
2018-08-07T22:19:35.307Z,70.80
2018-08-07T22:22:02.789Z,71.40
2018-08-07T22:24:30.240Z,71.00
2018-08-07T22:26:57.680Z,71.00
2018-08-07T22:29:25.138Z,70.80
2018-08-07T22:31:52.585Z,70.70
2018-08-07T22:34:20.050Z,71.20
2018-08-07T22:36:47.532Z,71.10
2018-08-07T22:39:15.109Z,71.30
2018-08-07T22:41:42.643Z,71.70
2018-08-07T22:44:10.101Z,73.40
2018-08-07T22:46:37.544Z,72.20
2018-08-07T22:49:05.156Z,70.80
2018-08-07T22:51:32.460Z,70.40
2018-08-07T22:54:00.057Z,72.30
2018-08-07T22:56:27.544Z,74.50
2018-08-07T22:58:54.982Z,73.00
2018-08-07T23:01:22.430Z,72.70
2018-08-07T23:03:49.897Z,72.80
2018-08-07T23:06:17.367Z,72.30
2018-08-07T23:08:44.848Z,71.90
2018-08-07T23:11:12.308Z,74.50
2018-08-07T23:13:39.755Z,75.30
2018-08-07T23:16:07.260Z,72.20
2018-08-07T23:18:34.740Z,71.80
2018-08-07T23:21:02.213Z,71.30
2018-08-07T23:23:29.732Z,71.80
2018-08-07T23:25:57.208Z,71.40
2018-08-07T23:28:24.636Z,71.90
2018-08-07T23:30:52.081Z,70.90
2018-08-07T23:33:19.521Z,70.80
2018-08-07T23:35:46.970Z,70.40
2018-08-07T23:38:14.486Z,70.50
2018-08-07T23:40:42.061Z,71.00
2018-08-07T23:43:09.504Z,70.90
2018-08-07T23:45:36.956Z,72.00
2018-08-07T23:48:04.397Z,71.80
2018-08-07T23:50:31.860Z,72.30
2018-08-07T23:52:59.320Z,72.20
2018-08-07T23:55:26.797Z,72.60
2018-08-07T23:57:54.244Z,72.50
